Time;durP1;ratioP1;P1;durP2;ratioP2;P2;SDS_P1;SDS_P2;PMS_P1;PMS_P2;Temp;Humidity;BMP_temperature;BMP_pressure;BME280_temperature;BME280_humidity;BME280_pressure;Samples;Min_cycle;Max_cycle;Signal;HPM_P1;HPM_P2
2022/09/05 00:02:28;;;;;;;2.07;1.23;;;;;;;;;;5003226;28;20290;-32
2022/09/05 00:05:00;;;;;;;1.57;1.40;;;;;;;;;;5011530;28;20208;-33
2022/09/05 00:07:31;;;;;;;1.60;1.27;;;;;;;;;;5009186;28;20253;-32
2022/09/05 00:10:04;;;;;;;3.20;1.53;;;;;;;;;;5011417;28;20205;-33
2022/09/05 00:12:32;;;;;;;4.70;1.30;;;;;;;;;;5011168;28;20213;-32
2022/09/05 00:15:18;;;;;;;1.67;1.30;;;;;;;;;;5008893;28;20230;-34
2022/09/05 00:17:50;;;;;;;2.20;1.10;;;;;;;;;;5006014;28;20232;-30
2022/09/05 00:20:21;;;;;;;3.27;1.40;;;;;;;;;;5011728;28;20232;-32
2022/09/05 00:22:52;;;;;;;3.57;1.40;;;;;;;;;;5011534;28;20211;-33
2022/09/05 00:25:42;;;;;;;1.50;1.40;;;;;;;;;;5007977;28;20234;-31
2022/09/05 00:28:16;;;;;;;2.70;1.40;;;;;;;;;;5011299;28;20307;-35
2022/09/05 00:30:47;;;;;;;2.07;1.30;;;;;;;;;;5009268;28;20212;-31
2022/09/05 00:33:19;;;;;;;2.67;1.37;;;;;;;;;;5010691;28;20196;-33
2022/09/05 00:35:52;;;;;;;1.30;1.20;;;;;;;;;;5011063;28;20192;-31
2022/09/05 00:38:22;;;;;;;3.47;1.40;;;;;;;;;;5009186;28;20239;-33
2022/09/05 00:40:50;;;;;;;1.30;1.30;;;;;;;;;;5010868;28;20231;-34
2022/09/05 00:43:19;;;;;;;1.67;1.57;;;;;;;;;;5010997;28;20201;-30
2022/09/05 00:45:48;;;;;;;2.27;1.60;;;;;;;;;;5009221;28;20209;-32
2022/09/05 00:48:20;;;;;;;5.10;1.50;;;;;;;;;;5008569;28;20246;-31
2022/09/05 00:50:57;;;;;;;1.53;1.40;;;;;;;;;;5011367;28;20208;-32
2022/09/05 00:53:29;;;;;;;1.10;1.00;;;;;;;;;;5010920;28;20207;-35
2022/09/05 00:56:01;;;;;;;1.30;1.20;;;;;;;;;;5006560;28;20211;-33
2022/09/05 00:58:38;;;;;;;1.23;1.20;;;;;;;;;;5010030;28;20225;-34
2022/09/05 01:01:20;;;;;;;3.53;3.23;;;;;;;;;;5007642;28;20214;-32
2022/09/05 01:03:53;;;;;;;1.53;1.33;;;;;;;;;;5009136;28;20204;-33
2022/09/05 01:06:27;;;;;;;1.80;1.27;;;;;;;;;;5010006;28;20219;-31
2022/09/05 01:09:21;;;;;;;4.50;1.47;;;;;;;;;;5008730;28;20228;-31
2022/09/05 01:11:57;;;;;;;1.90;1.80;;;;;;;;;;5006282;28;20208;-31
2022/09/05 01:14:28;;;;;;;1.40;1.30;;;;;;;;;;5007753;28;20213;-33
2022/09/05 01:17:01;;;;;;;1.57;1.37;;;;;;;;;;5009801;28;20217;-30
2022/09/05 01:19:31;;;;;;;1.67;1.40;;;;;;;;;;5010411;28;20226;-32
2022/09/05 01:22:22;;;;;;;4.13;1.40;;;;;;;;;;5010860;28;20208;-34
2022/09/05 01:25:04;;;;;;;2.20;1.40;;;;;;;;;;4988557;28;20205;-29
2022/09/05 01:27:40;;;;;;;2.60;1.50;;;;;;;;;;5008530;28;20282;-34
2022/09/05 01:30:09;;;;;;;1.87;1.37;;;;;;;;;;5008639;28;20204;-35
2022/09/05 01:32:40;;;;;;;4.30;1.67;;;;;;;;;;5010140;28;20208;-30
2022/09/05 01:35:37;;;;;;;1.27;1.17;;;;;;;;;;5010655;28;20215;-30
2022/09/05 01:38:08;;;;;;;1.37;1.27;;;;;;;;;;4949219;28;20230;-34
2022/09/05 01:40:42;;;;;;;1.70;1.60;;;;;;;;;;4990493;28;20223;-31
2022/09/05 01:43:15;;;;;;;2.60;1.30;;;;;;;;;;5010193;28;20215;-32
2022/09/05 01:45:48;;;;;;;2.30;1.37;;;;;;;;;;5004162;28;20207;-32
2022/09/05 01:48:22;;;;;;;1.40;1.30;;;;;;;;;;5006829;28;20242;-34
2022/09/05 01:50:56;;;;;;;0.90;0.90;;;;;;;;;;4990599;28;20291;-30
2022/09/05 01:53:28;;;;;;;2.00;1.30;;;;;;;;;;4999590;28;20207;-32
2022/09/05 01:56:09;;;;;;;1.50;1.40;;;;;;;;;;5009262;28;20199;-32
2022/09/05 01:58:44;;;;;;;4.93;1.20;;;;;;;;;;5007032;28;20228;-35
2022/09/05 02:01:15;;;;;;;3.27;1.40;;;;;;;;;;5008350;28;20211;-32
2022/09/05 02:03:47;;;;;;;1.70;1.60;;;;;;;;;;5009741;28;20246;-31
2022/09/05 02:06:32;;;;;;;1.43;1.30;;;;;;;;;;5010017;28;20339;-32
2022/09/05 02:09:18;;;;;;;1.40;1.30;;;;;;;;;;5007931;28;20227;-32
2022/09/05 02:11:48;;;;;;;1.50;1.40;;;;;;;;;;5003469;28;20203;-32
2022/09/05 02:14:26;;;;;;;3.20;1.50;;;;;;;;;;5007493;28;20303;-31
2022/09/05 02:16:55;;;;;;;1.40;1.30;;;;;;;;;;5009336;28;20208;-34
2022/09/05 02:19:24;;;;;;;1.60;1.27;;;;;;;;;;5009759;28;20225;-32
2022/09/05 02:21:55;;;;;;;1.50;1.40;;;;;;;;;;5009429;28;20207;-33
2022/09/05 02:24:23;;;;;;;2.03;1.70;;;;;;;;;;5007528;28;20219;-34
2022/09/05 02:27:12;;;;;;;1.23;1.17;;;;;;;;;;5009096;28;20211;-32
2022/09/05 02:29:43;;;;;;;1.43;1.30;;;;;;;;;;5001689;28;20204;-34
2022/09/05 02:32:13;;;;;;;2.53;1.20;;;;;;;;;;5009133;28;20211;-33
2022/09/05 02:34:43;;;;;;;1.40;1.30;;;;;;;;;;5009481;28;20211;-32
2022/09/05 02:37:14;;;;;;;1.30;1.30;;;;;;;;;;5008452;28;20229;-32
2022/09/05 02:39:47;;;;;;;1.73;1.40;;;;;;;;;;5011850;28;20498;-30
2022/09/05 02:42:18;;;;;;;1.50;1.30;;;;;;;;;;5013440;28;20210;-33
2022/09/05 02:44:53;;;;;;;1.70;1.60;;;;;;;;;;5010313;28;20207;-31
2022/09/05 02:47:22;;;;;;;1.07;1.07;;;;;;;;;;5013259;28;20281;-31
2022/09/05 02:49:56;;;;;;;1.87;1.20;;;;;;;;;;5013005;28;20199;-31
2022/09/05 02:52:25;;;;;;;1.30;1.27;;;;;;;;;;5010831;28;20203;-32
2022/09/05 02:54:54;;;;;;;1.63;1.53;;;;;;;;;;5011725;28;20246;-28
2022/09/05 02:57:35;;;;;;;2.13;1.30;;;;;;;;;;5012603;28;20228;-32
2022/09/05 03:00:07;;;;;;;1.57;1.30;;;;;;;;;;5010902;28;20227;-33
2022/09/05 03:02:41;;;;;;;1.80;1.30;;;;;;;;;;5011896;28;20219;-34
2022/09/05 03:05:11;;;;;;;2.00;1.40;;;;;;;;;;5012532;28;20208;-31
2022/09/05 03:07:54;;;;;;;1.73;1.50;;;;;;;;;;5011167;28;20231;-29
2022/09/05 03:10:44;;;;;;;2.67;1.80;;;;;;;;;;5012426;28;20203;-31
2022/09/05 03:13:29;;;;;;;1.73;1.63;;;;;;;;;;5013234;28;20203;-32
2022/09/05 03:16:31;;;;;;;1.90;1.70;;;;;;;;;;4995546;28;20217;-35
2022/09/05 03:19:16;;;;;;;1.70;1.53;;;;;;;;;;5008213;28;20226;-32
2022/09/05 03:22:02;;;;;;;1.57;1.30;;;;;;;;;;5012717;28;20207;-30
2022/09/05 03:25:02;;;;;;;1.50;1.30;;;;;;;;;;4980095;28;20216;-32
2022/09/05 03:27:53;;;;;;;2.40;1.50;;;;;;;;;;4932234;29;20771;-31
2022/09/05 03:30:20;;;;;;;2.07;1.50;;;;;;;;;;4899353;29;20209;-33
2022/09/05 03:33:08;;;;;;;1.30;1.20;;;;;;;;;;4980400;28;20222;-29
2022/09/05 03:36:07;;;;;;;1.33;1.30;;;;;;;;;;5011927;28;20210;-35
2022/09/05 03:38:53;;;;;;;3.00;1.60;;;;;;;;;;5009935;28;20306;-31
2022/09/05 03:41:28;;;;;;;3.53;1.50;;;;;;;;;;5008549;28;20233;-30
2022/09/05 03:44:05;;;;;;;1.63;1.60;;;;;;;;;;5010372;28;20203;-32
2022/09/05 03:46:45;;;;;;;2.00;1.33;;;;;;;;;;5010811;28;20211;-31
2022/09/05 03:49:18;;;;;;;3.47;1.60;;;;;;;;;;5011643;28;20195;-29
2022/09/05 03:51:48;;;;;;;1.80;1.20;;;;;;;;;;5012435;28;20207;-31
2022/09/05 03:54:28;;;;;;;1.37;1.30;;;;;;;;;;5009684;28;20210;-30
2022/09/05 03:57:02;;;;;;;1.43;1.43;;;;;;;;;;5011666;28;20233;-34
2022/09/05 03:59:42;;;;;;;2.57;1.80;;;;;;;;;;5009636;28;20220;-32
2022/09/05 04:02:11;;;;;;;5.13;1.60;;;;;;;;;;5006934;28;20207;-33
2022/09/05 04:04:44;;;;;;;1.80;1.50;;;;;;;;;;5011252;28;20214;-30
2022/09/05 04:07:17;;;;;;;1.80;1.50;;;;;;;;;;5011090;28;20223;-34
2022/09/05 04:09:47;;;;;;;4.30;1.43;;;;;;;;;;5008758;28;20227;-29
2022/09/05 04:12:16;;;;;;;1.37;1.27;;;;;;;;;;5011063;28;20211;-29
2022/09/05 04:14:46;;;;;;;2.60;1.73;;;;;;;;;;5008952;28;20222;-33
2022/09/05 04:17:21;;;;;;;1.93;1.50;;;;;;;;;;5003660;28;20431;-32
2022/09/05 04:19:52;;;;;;;3.60;1.87;;;;;;;;;;5011295;28;20211;-30
2022/09/05 04:22:20;;;;;;;1.40;1.27;;;;;;;;;;5009705;28;20207;-30
2022/09/05 04:24:50;;;;;;;1.87;1.33;;;;;;;;;;5009957;28;20212;-33
2022/09/05 04:27:29;;;;;;;1.80;1.40;;;;;;;;;;5010847;28;20322;-33
2022/09/05 04:30:00;;;;;;;1.30;1.20;;;;;;;;;;5009035;28;20211;-33
2022/09/05 04:32:36;;;;;;;1.40;1.30;;;;;;;;;;5010217;28;20211;-31
2022/09/05 04:35:13;;;;;;;1.47;1.37;;;;;;;;;;5010361;28;20590;-33
2022/09/05 04:37:54;;;;;;;1.83;1.70;;;;;;;;;;5011343;28;20242;-30
2022/09/05 04:40:41;;;;;;;3.60;1.70;;;;;;;;;;5262489;22;20320;-33
2022/09/05 04:43:10;;;;;;;1.70;1.60;;;;;;;;;;5025575;28;20212;-38
2022/09/05 04:45:40;;;;;;;1.63;1.50;;;;;;;;;;5029354;28;20580;-34
2022/09/05 04:48:09;;;;;;;3.67;1.37;;;;;;;;;;5010300;28;20227;-34
2022/09/05 04:50:44;;;;;;;2.73;1.70;;;;;;;;;;5001392;28;20708;-35
2022/09/05 04:53:16;;;;;;;1.97;1.50;;;;;;;;;;5013166;28;20202;-33
2022/09/05 04:55:44;;;;;;;2.17;1.20;;;;;;;;;;5010681;28;20202;-35
2022/09/05 04:58:14;;;;;;;1.70;1.50;;;;;;;;;;5010304;28;20224;-33
2022/09/05 05:00:44;;;;;;;1.60;1.50;;;;;;;;;;5002664;28;20222;-36
2022/09/05 05:03:13;;;;;;;1.60;1.50;;;;;;;;;;5012687;28;20206;-31
2022/09/05 05:05:53;;;;;;;1.60;1.50;;;;;;;;;;5013252;28;20318;-34
2022/09/05 05:08:24;;;;;;;3.80;1.63;;;;;;;;;;5007422;28;20220;-33
2022/09/05 05:10:52;;;;;;;2.07;1.87;;;;;;;;;;5004422;28;20253;-32
2022/09/05 05:13:22;;;;;;;2.13;1.30;;;;;;;;;;5010874;28;20221;-32
2022/09/05 05:15:52;;;;;;;3.90;1.60;;;;;;;;;;5002035;28;20261;-32
2022/09/05 05:18:21;;;;;;;1.60;1.50;;;;;;;;;;5009707;28;20242;-32
2022/09/05 05:20:57;;;;;;;2.70;1.77;;;;;;;;;;5013239;28;20232;-33
2022/09/05 05:23:33;;;;;;;2.77;1.57;;;;;;;;;;5008004;28;20210;-36
2022/09/05 05:26:01;;;;;;;1.43;1.33;;;;;;;;;;5010305;28;20557;-31
2022/09/05 05:28:32;;;;;;;1.60;1.50;;;;;;;;;;5012719;28;20219;-32
2022/09/05 05:31:09;;;;;;;3.90;1.70;;;;;;;;;;4999411;28;20210;-35
2022/09/05 05:33:38;;;;;;;1.53;1.40;;;;;;;;;;5005262;28;20252;-32
2022/09/05 05:36:08;;;;;;;1.50;1.40;;;;;;;;;;5006579;28;20217;-33
2022/09/05 05:38:40;;;;;;;2.57;1.60;;;;;;;;;;5012376;28;20223;-34
2022/09/05 05:41:17;;;;;;;2.00;1.70;;;;;;;;;;5012752;28;20224;-36
2022/09/05 05:43:46;;;;;;;3.53;1.80;;;;;;;;;;5002165;28;20207;-33
2022/09/05 05:46:15;;;;;;;2.13;1.80;;;;;;;;;;5006326;28;20266;-34
2022/09/05 05:48:43;;;;;;;1.70;1.60;;;;;;;;;;5012053;28;20254;-37
2022/09/05 05:51:26;;;;;;;1.80;1.70;;;;;;;;;;5013037;28;20211;-36
2022/09/05 05:53:56;;;;;;;4.73;1.87;;;;;;;;;;5009577;28;20208;-30
2022/09/05 05:56:35;;;;;;;2.13;1.63;;;;;;;;;;5000686;28;20201;-33
2022/09/05 05:59:14;;;;;;;2.00;1.80;;;;;;;;;;5006213;28;20212;-34
2022/09/05 06:02:03;;;;;;;4.60;2.00;;;;;;;;;;5002391;28;20228;-30
2022/09/05 06:04:45;;;;;;;3.70;2.07;;;;;;;;;;5010821;28;20211;-35
2022/09/05 06:07:18;;;;;;;4.97;2.30;;;;;;;;;;5007517;28;20228;-36
2022/09/05 06:10:16;;;;;;;2.23;2.03;;;;;;;;;;5011914;28;20210;-31
2022/09/05 06:13:03;;;;;;;2.77;2.00;;;;;;;;;;4971443;28;20211;-34
2022/09/05 06:15:42;;;;;;;2.80;2.07;;;;;;;;;;5002478;28;20199;-33
2022/09/05 06:18:27;;;;;;;2.23;2.03;;;;;;;;;;5014585;28;20225;-35
2022/09/05 06:21:12;;;;;;;1.90;1.80;;;;;;;;;;5014918;28;20215;-33
2022/09/05 06:23:54;;;;;;;2.50;2.10;;;;;;;;;;5010941;28;20266;-33
2022/09/05 06:26:40;;;;;;;2.90;2.20;;;;;;;;;;5015651;28;20202;-32
2022/09/05 06:29:12;;;;;;;2.67;2.00;;;;;;;;;;5011843;28;20204;-34
2022/09/05 06:31:49;;;;;;;1.73;1.63;;;;;;;;;;5014040;28;20597;-33
2022/09/05 06:34:26;;;;;;;4.17;2.27;;;;;;;;;;5015758;28;20187;-36
2022/09/05 06:36:57;;;;;;;3.83;2.10;;;;;;;;;;5011350;28;20202;-34
2022/09/05 06:39:35;;;;;;;2.10;1.87;;;;;;;;;;5014637;28;20223;-35
2022/09/05 06:42:18;;;;;;;3.90;1.90;;;;;;;;;;5015295;28;20223;-37
2022/09/05 06:44:57;;;;;;;3.90;2.13;;;;;;;;;;5010902;28;20191;-32
2022/09/05 06:47:25;;;;;;;4.03;2.47;;;;;;;;;;5011888;28;20218;-34
2022/09/05 06:50:02;;;;;;;2.73;2.53;;;;;;;;;;5015237;28;20209;-33
2022/09/05 06:52:40;;;;;;;3.43;2.50;;;;;;;;;;5005771;28;20199;-34
2022/09/05 06:55:26;;;;;;;2.50;2.30;;;;;;;;;;5006316;28;20590;-33
2022/09/05 06:58:15;;;;;;;4.13;2.37;;;;;;;;;;5006488;28;20227;-32
2022/09/05 07:00:45;;;;;;;2.63;2.40;;;;;;;;;;5000132;28;20229;-35
2022/09/05 07:03:26;;;;;;;3.83;2.80;;;;;;;;;;5010977;28;20204;-33
2022/09/05 07:05:55;;;;;;;2.47;2.27;;;;;;;;;;4997388;28;20196;-35
2022/09/05 07:08:28;;;;;;;2.50;2.30;;;;;;;;;;5009137;28;20219;-35
2022/09/05 07:10:58;;;;;;;3.30;2.33;;;;;;;;;;5012500;28;20265;-34
2022/09/05 07:13:31;;;;;;;3.27;2.30;;;;;;;;;;5006799;28;20196;-33
2022/09/05 07:16:02;;;;;;;2.93;2.43;;;;;;;;;;5004135;28;20201;-37
2022/09/05 07:18:34;;;;;;;2.60;2.40;;;;;;;;;;5014597;28;20221;-35
2022/09/05 07:21:03;;;;;;;2.87;2.63;;;;;;;;;;5015109;28;20226;-35
2022/09/05 07:23:41;;;;;;;2.97;2.60;;;;;;;;;;5010298;28;20205;-36
2022/09/05 07:26:10;;;;;;;2.43;2.30;;;;;;;;;;5013561;28;20194;-36
2022/09/05 07:28:41;;;;;;;2.53;2.33;;;;;;;;;;5014676;28;20229;-33
2022/09/05 07:31:10;;;;;;;3.63;2.60;;;;;;;;;;5006425;28;20199;-37
2022/09/05 07:33:38;;;;;;;4.07;2.47;;;;;;;;;;5013006;28;20198;-37
2022/09/05 07:36:07;;;;;;;2.33;2.20;;;;;;;;;;5013982;28;20210;-33
2022/09/05 07:38:35;;;;;;;2.50;2.30;;;;;;;;;;5010751;28;20232;-36
2022/09/05 07:41:04;;;;;;;2.50;2.30;;;;;;;;;;5000685;28;20297;-38
2022/09/05 07:43:34;;;;;;;2.87;2.23;;;;;;;;;;5013940;28;20199;-38
2022/09/05 07:46:11;;;;;;;3.90;2.23;;;;;;;;;;5007459;28;20206;-34
2022/09/05 07:48:41;;;;;;;3.67;2.33;;;;;;;;;;5013452;28;20276;-34
2022/09/05 07:51:09;;;;;;;3.30;2.60;;;;;;;;;;5014534;28;20209;-35
2022/09/05 07:53:37;;;;;;;3.60;2.80;;;;;;;;;;5008993;28;20206;-34
2022/09/05 07:56:05;;;;;;;2.30;2.07;;;;;;;;;;5005976;28;20210;-37
2022/09/05 07:58:40;;;;;;;2.60;2.37;;;;;;;;;;5014080;28;20231;-37
2022/09/05 08:01:11;;;;;;;2.53;2.33;;;;;;;;;;5006251;28;20262;-36
2022/09/05 08:03:39;;;;;;;4.00;2.30;;;;;;;;;;5011336;28;20261;-36
2022/09/05 08:06:09;;;;;;;2.20;2.10;;;;;;;;;;5014365;28;20209;-36
2022/09/05 08:08:48;;;;;;;3.10;2.70;;;;;;;;;;5011107;28;20235;-36
2022/09/05 08:11:17;;;;;;;2.60;2.40;;;;;;;;;;5009515;28;20288;-36
2022/09/05 08:13:50;;;;;;;3.17;2.20;;;;;;;;;;5012729;28;20217;-38
2022/09/05 08:16:18;;;;;;;4.80;2.30;;;;;;;;;;5007562;28;20195;-35
2022/09/05 08:18:49;;;;;;;4.60;2.30;;;;;;;;;;5013898;28;20218;-37
2022/09/05 08:21:21;;;;;;;6.70;2.37;;;;;;;;;;5014288;28;20204;-36
2022/09/05 08:23:52;;;;;;;3.13;2.17;;;;;;;;;;4999885;28;20206;-33
2022/09/05 08:26:27;;;;;;;2.10;2.00;;;;;;;;;;5010138;28;20199;-38
2022/09/05 08:28:57;;;;;;;2.70;2.07;;;;;;;;;;4994070;28;20399;-32
2022/09/05 08:31:28;;;;;;;2.80;1.93;;;;;;;;;;5001330;28;20192;-37
2022/09/05 08:34:00;;;;;;;1.80;1.70;;;;;;;;;;5013231;28;20202;-35
2022/09/05 08:36:31;;;;;;;1.80;1.70;;;;;;;;;;5013515;28;20203;-35
2022/09/05 08:39:00;;;;;;;2.20;1.85;;;;;;;;;;5005476;28;20581;-38
2022/09/05 08:41:28;;;;;;;1.92;1.80;;;;;;;;;;5005724;28;20229;-38
2022/09/05 08:43:59;;;;;;;2.40;2.20;;;;;;;;;;5011362;28;20203;-37
2022/09/05 08:46:29;;;;;;;1.92;1.73;;;;;;;;;;5006854;28;20444;-35
2022/09/05 08:49:24;;;;;;;2.55;2.00;;;;;;;;;;5013334;28;20215;-35
2022/09/05 08:51:54;;;;;;;1.92;1.73;;;;;;;;;;5010456;28;20195;-36
2022/09/05 08:54:23;;;;;;;1.80;1.70;;;;;;;;;;5009325;28;20224;-36
2022/09/05 08:56:52;;;;;;;2.13;1.92;;;;;;;;;;5005286;28;20232;-34
2022/09/05 08:59:25;;;;;;;2.10;1.90;;;;;;;;;;5007540;28;20201;-39
2022/09/05 09:02:05;;;;;;;2.40;2.20;;;;;;;;;;5008258;28;20302;-39
2022/09/05 09:04:39;;;;;;;2.58;1.63;;;;;;;;;;5010486;28;20191;-34
2022/09/05 09:07:09;;;;;;;3.75;2.05;;;;;;;;;;5010107;28;20685;-37
2022/09/05 09:09:41;;;;;;;4.45;2.10;;;;;;;;;;5005169;28;20201;-40
2022/09/05 09:12:13;;;;;;;2.63;2.33;;;;;;;;;;5013036;28;20195;-35
2022/09/05 09:14:52;;;;;;;1.90;1.80;;;;;;;;;;5007213;28;20200;-37
2022/09/05 09:17:25;;;;;;;4.75;1.98;;;;;;;;;;5009364;28;20218;-33
2022/09/05 09:19:57;;;;;;;2.05;1.88;;;;;;;;;;5005952;28;20201;-34
2022/09/05 09:22:32;;;;;;;1.98;1.83;;;;;;;;;;5006690;28;20260;-33
2022/09/05 09:25:03;;;;;;;1.90;1.80;;;;;;;;;;5001312;28;20253;-37
2022/09/05 09:27:36;;;;;;;4.13;1.92;;;;;;;;;;5013128;28;20578;-35
2022/09/05 09:30:05;;;;;;;3.00;2.10;;;;;;;;;;5006833;28;20196;-36
2022/09/05 09:32:37;;;;;;;2.55;1.80;;;;;;;;;;5010687;28;20199;-36
2022/09/05 09:35:08;;;;;;;2.65;1.92;;;;;;;;;;5012184;28;20482;-40
2022/09/05 09:37:44;;;;;;;2.83;2.17;;;;;;;;;;5012866;28;20222;-38
2022/09/05 09:40:32;;;;;;;2.72;2.13;;;;;;;;;;5008622;28;20205;-40
2022/09/05 09:43:02;;;;;;;4.25;2.00;;;;;;;;;;5008039;28;20222;-33
2022/09/05 09:45:34;;;;;;;3.47;1.80;;;;;;;;;;5002460;28;20197;-35
2022/09/05 09:48:18;;;;;;;2.50;2.00;;;;;;;;;;5007409;28;20215;-39
2022/09/05 09:50:59;;;;;;;2.40;2.20;;;;;;;;;;5012329;28;20205;-35
2022/09/05 09:53:42;;;;;;;2.75;1.85;;;;;;;;;;5000929;28;20209;-35
2022/09/05 09:56:14;;;;;;;1.90;1.80;;;;;;;;;;5011839;28;20203;-35
2022/09/05 09:58:57;;;;;;;2.13;1.88;;;;;;;;;;5012027;28;20219;-36
2022/09/05 10:01:31;;;;;;;2.70;1.90;;;;;;;;;;5004523;28;20215;-37
2022/09/05 10:04:06;;;;;;;2.13;1.73;;;;;;;;;;5012432;28;20187;-37
2022/09/05 10:06:44;;;;;;;2.97;1.70;;;;;;;;;;5012314;28;20207;-35
2022/09/05 10:09:17;;;;;;;1.58;1.48;;;;;;;;;;5005834;28;20191;-34
2022/09/05 10:11:54;;;;;;;2.42;1.88;;;;;;;;;;5012403;28;20190;-36
2022/09/05 10:14:40;;;;;;;2.13;1.70;;;;;;;;;;5006577;28;20203;-36
2022/09/05 10:17:28;;;;;;;2.00;1.58;;;;;;;;;;5007125;28;20224;-33
2022/09/05 10:20:10;;;;;;;5.47;2.08;;;;;;;;;;5006479;28;20203;-37
2022/09/05 10:22:48;;;;;;;1.70;1.60;;;;;;;;;;4969743;28;20233;-37
2022/09/05 10:25:24;;;;;;;1.75;1.60;;;;;;;;;;5008503;28;20214;-38
2022/09/05 10:27:59;;;;;;;3.13;1.45;;;;;;;;;;5002615;28;20221;-32
2022/09/05 10:30:30;;;;;;;1.88;1.77;;;;;;;;;;5000892;28;20654;-37
2022/09/05 10:33:19;;;;;;;2.38;1.88;;;;;;;;;;5011771;28;20207;-38
2022/09/05 10:35:49;;;;;;;3.72;2.05;;;;;;;;;;4992169;28;20196;-35
2022/09/05 10:38:21;;;;;;;2.80;1.75;;;;;;;;;;4991157;28;20220;-35
2022/09/05 10:43:21;;;;;;;2.20;1.45;;;;;;;;;;4969797;28;20235;-42
2022/09/05 10:45:54;;;;;;;3.10;1.77;;;;;;;;;;4970399;28;20204;-42
2022/09/05 10:48:23;;;;;;;2.88;1.95;;;;;;;;;;4969220;28;20224;-42
2022/09/05 10:50:52;;;;;;;4.38;2.03;;;;;;;;;;4973240;28;20209;-39
2022/09/05 10:53:26;;;;;;;2.25;2.05;;;;;;;;;;4970860;28;20204;-40
2022/09/05 10:55:59;;;;;;;2.73;1.83;;;;;;;;;;4972479;28;20204;-37
2022/09/05 10:58:43;;;;;;;2.35;1.40;;;;;;;;;;4972687;28;20236;-40
2022/09/05 11:01:18;;;;;;;1.67;1.58;;;;;;;;;;4974819;28;20575;-41
2022/09/05 11:03:54;;;;;;;2.70;1.60;;;;;;;;;;4976029;28;20212;-43
2022/09/05 11:06:26;;;;;;;3.13;1.40;;;;;;;;;;4976332;28;20634;-38
2022/09/05 11:08:59;;;;;;;1.92;1.58;;;;;;;;;;4974330;28;20228;-43
2022/09/05 11:11:27;;;;;;;2.65;1.50;;;;;;;;;;4976167;28;20200;-43
2022/09/05 11:13:55;;;;;;;1.87;1.40;;;;;;;;;;4974489;28;20212;-44
2022/09/05 11:16:27;;;;;;;2.08;1.83;;;;;;;;;;4973259;28;20212;-41
2022/09/05 11:18:56;;;;;;;2.13;1.55;;;;;;;;;;4974371;28;20239;-42
2022/09/05 11:21:26;;;;;;;1.60;1.50;;;;;;;;;;4975659;28;20209;-39
2022/09/05 11:23:55;;;;;;;2.50;1.42;;;;;;;;;;4974250;28;20220;-42
2022/09/05 11:26:30;;;;;;;2.85;1.55;;;;;;;;;;4975542;28;20263;-39
2022/09/05 11:29:00;;;;;;;2.63;1.42;;;;;;;;;;4974106;28;20223;-43
2022/09/05 11:31:31;;;;;;;4.10;1.63;;;;;;;;;;4974261;28;20204;-37
2022/09/05 11:34:13;;;;;;;2.60;1.67;;;;;;;;;;4974850;28;20201;-41
2022/09/05 11:36:44;;;;;;;1.52;1.33;;;;;;;;;;4972740;28;20208;-38
2022/09/05 11:39:13;;;;;;;2.08;1.80;;;;;;;;;;4971531;28;20204;-41
2022/09/05 11:41:54;;;;;;;2.38;1.80;;;;;;;;;;4979187;28;20261;-44
2022/09/05 11:44:26;;;;;;;1.60;1.50;;;;;;;;;;4990941;28;20215;-42
2022/09/05 11:47:04;;;;;;;6.82;1.70;;;;;;;;;;4994593;28;20203;-38
2022/09/05 11:49:54;;;;;;;1.98;1.67;;;;;;;;;;4994848;28;20200;-44
2022/09/05 11:52:42;;;;;;;1.30;1.20;;;;;;;;;;4993124;28;20216;-39
2022/09/05 11:55:24;;;;;;;2.58;1.35;;;;;;;;;;4991034;28;20204;-43
2022/09/05 11:58:03;;;;;;;1.67;1.25;;;;;;;;;;4994472;28;20227;-45
2022/09/05 12:00:33;;;;;;;1.70;1.60;;;;;;;;;;4992980;28;20212;-40
2022/09/05 12:03:19;;;;;;;2.22;1.45;;;;;;;;;;4994329;28;20224;-39
2022/09/05 12:06:07;;;;;;;2.08;1.55;;;;;;;;;;4994205;28;20232;-40
2022/09/05 12:08:36;;;;;;;1.63;1.38;;;;;;;;;;4975064;28;20224;-42
2022/09/05 12:11:08;;;;;;;1.85;1.55;;;;;;;;;;4993958;28;20223;-42
2022/09/05 12:13:41;;;;;;;1.63;1.50;;;;;;;;;;4993618;28;20204;-43
2022/09/05 12:16:19;;;;;;;1.15;1.15;;;;;;;;;;4993292;28;20209;-37
2022/09/05 12:18:54;;;;;;;1.63;1.38;;;;;;;;;;4994392;28;20576;-45
2022/09/05 12:21:26;;;;;;;1.77;1.45;;;;;;;;;;4994563;28;20211;-42
2022/09/05 12:23:59;;;;;;;1.60;1.48;;;;;;;;;;4990463;28;20207;-41
2022/09/05 12:26:31;;;;;;;1.63;1.20;;;;;;;;;;4993468;28;20658;-45
2022/09/05 12:29:03;;;;;;;2.28;1.38;;;;;;;;;;4992513;28;20224;-41
2022/09/05 12:31:33;;;;;;;1.25;1.25;;;;;;;;;;4993664;28;20206;-42
2022/09/05 12:34:01;;;;;;;1.20;1.10;;;;;;;;;;4993767;28;20193;-42
2022/09/05 12:36:34;;;;;;;1.20;1.20;;;;;;;;;;4993751;28;20205;-46
2022/09/05 12:39:04;;;;;;;1.17;1.17;;;;;;;;;;4992965;28;20279;-43
2022/09/05 12:41:39;;;;;;;1.30;1.23;;;;;;;;;;4993868;28;20213;-42
2022/09/05 12:44:14;;;;;;;1.25;1.20;;;;;;;;;;4976057;28;20214;-42
2022/09/05 12:46:48;;;;;;;2.70;1.30;;;;;;;;;;4993335;28;20217;-44
2022/09/05 12:49:17;;;;;;;1.98;1.45;;;;;;;;;;4993990;28;20202;-45
2022/09/05 12:51:54;;;;;;;1.13;1.13;;;;;;;;;;4993185;28;20212;-42
2022/09/05 12:54:26;;;;;;;3.53;1.55;;;;;;;;;;4990155;28;20213;-37
2022/09/05 12:56:56;;;;;;;2.78;1.30;;;;;;;;;;4985557;28;20207;-46
2022/09/05 12:59:26;;;;;;;3.05;1.40;;;;;;;;;;4991650;28;20210;-44
2022/09/05 13:02:02;;;;;;;0.90;0.90;;;;;;;;;;4993531;28;20202;-45
2022/09/05 13:04:35;;;;;;;0.90;0.90;;;;;;;;;;4993328;28;20184;-45
2022/09/05 13:07:06;;;;;;;1.30;1.20;;;;;;;;;;4992036;28;20229;-44
2022/09/05 13:09:35;;;;;;;1.65;1.23;;;;;;;;;;4993319;28;20207;-44
2022/09/05 13:12:08;;;;;;;1.63;1.10;;;;;;;;;;4993203;28;20213;-41
2022/09/05 13:14:44;;;;;;;2.38;1.60;;;;;;;;;;4992136;28;20214;-47
2022/09/05 13:17:13;;;;;;;1.30;1.20;;;;;;;;;;4988263;28;20232;-44
2022/09/05 13:19:42;;;;;;;1.95;1.67;;;;;;;;;;4993332;28;20207;-45
2022/09/05 13:22:11;;;;;;;1.75;1.60;;;;;;;;;;4991133;28;20212;-42
2022/09/05 13:24:40;;;;;;;1.13;1.08;;;;;;;;;;4991716;28;20217;-41
2022/09/05 13:27:12;;;;;;;1.38;1.30;;;;;;;;;;4993056;28;20223;-42
2022/09/05 13:29:51;;;;;;;1.73;1.58;;;;;;;;;;4991537;28;20613;-43
2022/09/05 13:32:20;;;;;;;1.30;1.20;;;;;;;;;;4989501;28;20271;-41
2022/09/05 13:34:48;;;;;;;1.40;1.30;;;;;;;;;;4984721;28;20238;-42
2022/09/05 13:37:18;;;;;;;1.40;1.33;;;;;;;;;;4991136;28;20670;-39
2022/09/05 13:39:54;;;;;;;1.95;1.33;;;;;;;;;;4993051;28;20213;-42
2022/09/05 13:42:22;;;;;;;3.10;1.40;;;;;;;;;;4993521;28;20207;-41
2022/09/05 13:44:53;;;;;;;3.15;1.10;;;;;;;;;;4989363;28;20207;-40
2022/09/05 13:47:31;;;;;;;2.55;1.38;;;;;;;;;;4988895;28;20281;-42
2022/09/05 13:50:07;;;;;;;1.73;1.27;;;;;;;;;;4986177;28;20194;-42
2022/09/05 13:52:36;;;;;;;2.58;1.50;;;;;;;;;;4990864;28;20219;-40
2022/09/05 13:55:11;;;;;;;1.60;1.50;;;;;;;;;;4992170;28;20213;-42
2022/09/05 13:57:39;;;;;;;2.10;1.42;;;;;;;;;;4992177;28;20541;-43
2022/09/05 14:00:27;;;;;;;1.40;1.30;;;;;;;;;;4990597;28;20210;-42
2022/09/05 14:03:08;;;;;;;2.85;1.30;;;;;;;;;;4989407;28;20233;-42
2022/09/05 14:05:37;;;;;;;1.50;1.40;;;;;;;;;;4990138;28;20202;-42
2022/09/05 14:08:30;;;;;;;1.23;1.13;;;;;;;;;;4988686;28;20233;-42
2022/09/05 14:11:06;;;;;;;1.95;1.48;;;;;;;;;;4986591;28;20203;-44
2022/09/05 14:13:35;;;;;;;1.70;1.40;;;;;;;;;;4990895;28;20204;-39
2022/09/05 14:16:06;;;;;;;3.38;1.38;;;;;;;;;;4990283;28;20214;-45
2022/09/05 14:21:14;;;;;;;2.83;1.33;;;;;;;;;;4992340;28;20684;-44
2022/09/05 14:21:23;;;;;;;1.50;1.40;;;;;;;;;;4988728;28;20201;-41
2022/09/05 14:23:53;;;;;;;1.88;1.30;;;;;;;;;;4990846;28;20231;-43
2022/09/05 14:26:31;;;;;;;1.58;1.48;;;;;;;;;;4992016;28;20227;-43
2022/09/05 14:29:04;;;;;;;1.67;1.40;;;;;;;;;;4989052;28;20228;-44
2022/09/05 14:31:46;;;;;;;1.52;1.40;;;;;;;;;;4989910;28;20217;-40
2022/09/05 14:34:23;;;;;;;1.50;1.40;;;;;;;;;;4991102;28;20213;-45
2022/09/05 14:36:55;;;;;;;1.40;1.30;;;;;;;;;;4991487;28;20213;-41
2022/09/05 14:39:31;;;;;;;1.17;1.10;;;;;;;;;;4991846;28;20295;-44
2022/09/05 14:42:17;;;;;;;1.35;1.25;;;;;;;;;;4989708;28;20214;-40
2022/09/05 14:45:15;;;;;;;1.70;1.40;;;;;;;;;;4991927;28;20226;-44
2022/09/05 14:47:57;;;;;;;1.48;1.38;;;;;;;;;;4953386;28;20240;-46
2022/09/05 14:50:45;;;;;;;1.00;1.00;;;;;;;;;;4988684;28;20209;-42
2022/09/05 14:53:18;;;;;;;2.30;1.23;;;;;;;;;;4972962;28;20201;-45
2022/09/05 14:55:56;;;;;;;1.27;1.17;;;;;;;;;;4994945;28;20666;-43
2022/09/05 14:58:24;;;;;;;1.75;1.38;;;;;;;;;;4995810;28;20220;-40
2022/09/05 15:00:56;;;;;;;1.20;1.10;;;;;;;;;;4993357;28;20208;-38
2022/09/05 15:03:25;;;;;;;1.30;1.20;;;;;;;;;;4995651;28;20221;-41
2022/09/05 15:05:53;;;;;;;1.55;1.45;;;;;;;;;;4994644;28;20209;-45
2022/09/05 15:08:23;;;;;;;2.40;1.50;;;;;;;;;;4993907;28;20242;-40
2022/09/05 15:10:54;;;;;;;1.65;1.55;;;;;;;;;;4995419;28;20213;-45
2022/09/05 15:13:22;;;;;;;1.55;1.45;;;;;;;;;;4996172;28;20208;-42
2022/09/05 15:15:51;;;;;;;1.55;1.48;;;;;;;;;;4989254;28;20217;-43
2022/09/05 15:18:21;;;;;;;2.65;1.40;;;;;;;;;;4994719;28;20237;-42
2022/09/05 15:20:50;;;;;;;2.70;1.48;;;;;;;;;;4995699;28;20195;-44
2022/09/05 15:23:31;;;;;;;1.63;1.48;;;;;;;;;;4994495;28;20247;-42
2022/09/05 15:26:02;;;;;;;1.67;1.58;;;;;;;;;;4995396;28;20206;-42
2022/09/05 15:28:34;;;;;;;1.85;1.67;;;;;;;;;;4995786;28;20227;-45
2022/09/05 15:31:03;;;;;;;3.20;1.30;;;;;;;;;;4994455;28;20209;-43